Norma, New Jersey
Current Conditions -  °F | °C
As of 8:54 AM on Wednesday 28 Jan 2015 (Local Time) from KMIV Reporting Station
Clear Clear  
Wind Chill: -12°   Ceiling: Unl
Heat Index: -5°   Visibility: 10mi
Dew Point: -17°   Wind: 15mph
Humidity: 39%   Direction: 320°NW
Pressure: 30.11"   Gusts: 25mph
Location:  39.5°N, 75.09°W
Report Text: KMIV 281354Z AUTO 32013G22KT 10SM CLR M05/M17 A3011 RMK AO2 SLP195 T10501172
Loading
Personal Weather Stations






























Interactive Weather Map New forecast layout! Learn more

10-Day Weather Forecast

Advertisements
Track Severe Weather on mobile